RMS weather

Ramstein Air Base
Ramstein, Rhineland-Palatinate, Germany

Public forecast

Using degrees Celsius for public forecast. Weather courtesy of forecast.io.

METAR (pilot weather report)

Retrieved 2019/07/18 17:56 UTC (31 minutes ago):

ETAR 181756Z AUTO 34005KT 9999 CLR 24/12 A2991 RMK AO2 SLP125 T02430119 10280 20243 53011

TAF (pilot weather forecast)

Retrieved 2019/07/18 18:09 UTC (18 minutes ago):

TAF TAF ETAR 181806Z 1818/1924 VRB06KT 9999 BKN080 QNH2989INS BECMG 1901/1902 VRB06KT 9000 -SHRA BKN080 QNH2994INS BECMG 1908/1909 25009KT 8000 -SHRA BKN030 QNH2997INS BECMG 1913/1914 25009KT 9999 NSW BKN040 QNH2996INS TX26/1914Z TN15/1903Z